createdAt,value
2019-05-26T03:00:51.483Z,99.90
2019-05-26T03:03:19.726Z,99.90
2019-05-26T03:05:47.954Z,99.90
2019-05-26T03:08:16.558Z,99.90
2019-05-26T03:10:44.786Z,99.90
2019-05-26T03:13:13.523Z,99.90
2019-05-26T03:15:42.811Z,99.90
2019-05-26T03:18:11.028Z,99.90
2019-05-26T03:20:39.908Z,99.90
2019-05-26T03:23:08.276Z,99.90
2019-05-26T03:25:38.283Z,99.90
2019-05-26T03:28:07.248Z,99.90
2019-05-26T03:30:36.136Z,99.90
2019-05-26T03:33:04.716Z,99.90
2019-05-26T03:35:32.979Z,99.90
2019-05-26T03:38:01.213Z,99.90
2019-05-26T03:40:29.412Z,99.90
2019-05-26T03:42:57.650Z,99.90
2019-05-26T03:45:40.544Z,99.90
2019-05-26T03:48:08.766Z,99.90
2019-05-26T03:50:36.981Z,99.90
2019-05-26T03:53:05.200Z,99.90
2019-05-26T03:55:33.438Z,99.90
2019-05-26T03:58:01.661Z,99.90
2019-05-26T04:00:29.873Z,99.90
2019-05-26T04:02:58.133Z,99.90
2019-05-26T04:05:26.420Z,99.90
2019-05-26T04:07:54.628Z,99.90
2019-05-26T04:10:22.844Z,99.90
2019-05-26T04:12:51.057Z,99.90
2019-05-26T04:15:19.299Z,99.90
2019-05-26T04:17:47.504Z,99.90
2019-05-26T04:20:15.724Z,99.90
2019-05-26T04:22:43.951Z,99.90
2019-05-26T04:25:12.167Z,99.90
2019-05-26T04:27:40.462Z,99.90
2019-05-26T04:30:08.740Z,99.90
2019-05-26T04:32:36.970Z,99.90
2019-05-26T04:35:08.095Z,99.90
2019-05-26T04:37:36.303Z,99.90
2019-05-26T04:40:24.982Z,99.90
2019-05-26T04:42:37.587Z,99.90
2019-05-26T04:45:07.904Z,99.90
2019-05-26T04:47:36.123Z,99.90
2019-05-26T04:50:05.301Z,99.90
2019-05-26T04:52:33.522Z,99.90
2019-05-26T04:55:01.758Z,99.90
2019-05-26T04:57:30.034Z,99.90
2019-05-26T04:59:58.260Z,99.90
2019-05-26T05:02:26.481Z,99.90
2019-05-26T05:04:54.692Z,99.90
2019-05-26T05:07:22.907Z,99.90
2019-05-26T05:09:51.145Z,99.90
2019-05-26T05:12:19.377Z,99.90
2019-05-26T05:14:47.613Z,99.90
2019-05-26T05:17:15.819Z,99.90
2019-05-26T05:19:44.047Z,99.90
2019-05-26T05:22:12.282Z,99.90
2019-05-26T05:24:40.484Z,99.90
2019-05-26T05:27:08.710Z,99.90
2019-05-26T05:29:36.919Z,99.90
2019-05-26T05:32:05.413Z,99.90
2019-05-26T05:34:33.628Z,99.90
2019-05-26T05:37:01.983Z,99.90
2019-05-26T05:39:30.211Z,99.90
2019-05-26T05:41:58.435Z,99.90
2019-05-26T05:44:26.715Z,99.90
2019-05-26T05:46:54.938Z,99.90
2019-05-26T05:49:23.163Z,99.90
2019-05-26T05:51:51.398Z,99.90
2019-05-26T05:54:19.630Z,99.90
2019-05-26T05:56:47.867Z,99.90
2019-05-26T05:59:16.066Z,99.90
2019-05-26T06:01:44.315Z,99.90
2019-05-26T06:04:12.519Z,99.90
2019-05-26T06:06:40.744Z,99.90
2019-05-26T06:09:08.961Z,99.90
2019-05-26T06:11:37.198Z,99.90
2019-05-26T06:14:05.430Z,99.90
2019-05-26T06:16:33.681Z,99.90
2019-05-26T06:19:01.876Z,99.90
2019-05-26T06:21:30.095Z,99.90
2019-05-26T06:23:58.333Z,99.90
2019-05-26T06:26:26.569Z,99.90
2019-05-26T06:28:54.792Z,99.90
2019-05-26T06:31:23.015Z,99.90
2019-05-26T06:33:51.249Z,99.90
2019-05-26T06:36:19.476Z,99.90
2019-05-26T06:38:47.760Z,99.90
2019-05-26T06:41:31.867Z,99.90
2019-05-26T06:43:45.967Z,99.90
2019-05-26T06:46:14.222Z,99.90
2019-05-26T06:48:42.440Z,99.90
2019-05-26T06:51:10.650Z,99.90
2019-05-26T06:53:38.898Z,99.90
2019-05-26T06:56:07.124Z,99.90
2019-05-26T06:58:35.344Z,99.90
2019-05-26T07:01:03.722Z,99.90
2019-05-26T07:03:32.024Z,99.90
2019-05-26T07:06:00.255Z,99.90
2019-05-26T07:08:28.489Z,99.90
2019-05-26T07:10:56.717Z,99.90
2019-05-26T07:13:25.193Z,99.90
2019-05-26T07:15:53.477Z,99.90
2019-05-26T07:18:21.738Z,99.90
2019-05-26T07:20:49.969Z,99.90
2019-05-26T07:23:18.251Z,99.90
2019-05-26T07:25:46.492Z,99.90
2019-05-26T07:28:14.731Z,99.90
2019-05-26T07:30:43.934Z,99.90
2019-05-26T07:33:12.198Z,99.90
2019-05-26T07:35:40.486Z,99.90
2019-05-26T07:38:08.732Z,99.90
2019-05-26T07:40:36.958Z,99.90
2019-05-26T07:43:05.208Z,99.90
2019-05-26T07:45:33.503Z,99.00
2019-05-26T07:48:01.782Z,99.90
2019-05-26T07:50:30.007Z,99.90
2019-05-26T07:52:58.262Z,99.90
2019-05-26T07:55:26.492Z,98.00
2019-05-26T07:57:54.706Z,97.70
2019-05-26T08:00:22.928Z,99.90
2019-05-26T08:02:51.151Z,99.90
2019-05-26T08:05:19.378Z,99.40
2019-05-26T08:07:47.592Z,99.90
2019-05-26T08:10:15.814Z,97.70
2019-05-26T08:12:44.028Z,99.40
2019-05-26T08:15:12.281Z,99.90
2019-05-26T08:17:40.484Z,99.10
2019-05-26T08:20:09.000Z,99.80
2019-05-26T08:22:37.289Z,97.70
2019-05-26T08:25:07.373Z,99.30
2019-05-26T08:27:35.601Z,99.90
2019-05-26T08:30:05.469Z,99.40
2019-05-26T08:32:33.704Z,99.20
2019-05-26T08:35:01.928Z,96.30
2019-05-26T08:37:30.156Z,96.90
2019-05-26T08:40:00.034Z,97.20
2019-05-26T08:42:42.098Z,97.30
2019-05-26T08:44:58.231Z,98.70
2019-05-26T08:47:26.459Z,97.30
2019-05-26T08:49:54.680Z,97.60
2019-05-26T08:52:22.914Z,96.50
2019-05-26T08:54:51.147Z,97.00
2019-05-26T08:57:19.364Z,95.80
2019-05-26T08:59:47.594Z,96.60
2019-05-26T09:02:15.814Z,95.70
2019-05-26T09:04:44.049Z,94.90
2019-05-26T09:07:12.263Z,95.10
2019-05-26T09:09:40.479Z,96.10
2019-05-26T09:12:08.726Z,94.70
2019-05-26T09:14:36.972Z,95.70
2019-05-26T09:17:05.193Z,94.10
2019-05-26T09:19:33.428Z,95.00
2019-05-26T09:22:01.653Z,94.20
2019-05-26T09:24:29.854Z,94.90
2019-05-26T09:26:58.083Z,94.10
2019-05-26T09:29:26.300Z,93.40
2019-05-26T09:31:54.581Z,93.20
2019-05-26T09:34:22.936Z,92.50
2019-05-26T09:36:51.174Z,90.60
2019-05-26T09:39:19.406Z,91.40
2019-05-26T09:41:47.632Z,91.40
2019-05-26T09:44:15.874Z,90.60
2019-05-26T09:46:44.190Z,90.10
2019-05-26T09:49:12.425Z,90.30
2019-05-26T09:51:40.644Z,89.10
2019-05-26T09:54:12.036Z,87.80
2019-05-26T09:56:38.820Z,87.40
2019-05-26T09:59:07.064Z,87.40
2019-05-26T10:01:35.271Z,85.60
2019-05-26T10:04:03.514Z,89.80
2019-05-26T10:06:31.739Z,86.90
2019-05-26T10:08:59.982Z,84.90
2019-05-26T10:11:28.217Z,84.70
2019-05-26T10:13:56.439Z,86.20
2019-05-26T10:16:24.673Z,87.30
2019-05-26T10:18:52.883Z,86.80
2019-05-26T10:21:21.095Z,86.90
2019-05-26T10:23:52.917Z,85.50
2019-05-26T10:26:19.261Z,84.00
2019-05-26T10:28:47.507Z,84.00
2019-05-26T10:31:15.735Z,84.00
2019-05-26T10:33:43.982Z,85.20
2019-05-26T10:36:12.203Z,82.90
2019-05-26T10:38:40.436Z,83.50
2019-05-26T10:41:08.653Z,83.10
2019-05-26T10:43:46.832Z,86.10
2019-05-26T10:46:06.835Z,78.90
2019-05-26T10:48:35.056Z,80.60
2019-05-26T10:51:06.660Z,82.10
2019-05-26T10:53:33.262Z,82.30
2019-05-26T10:56:01.480Z,83.00
2019-05-26T10:58:29.726Z,80.30
2019-05-26T11:00:57.935Z,81.60
2019-05-26T11:03:26.181Z,82.30
2019-05-26T11:05:54.406Z,80.20
2019-05-26T11:08:22.639Z,83.00
2019-05-26T11:10:51.146Z,81.20
2019-05-26T11:13:19.367Z,80.10
2019-05-26T11:15:47.615Z,80.40
2019-05-26T11:18:15.842Z,81.80
2019-05-26T11:20:44.094Z,83.10
2019-05-26T11:23:12.303Z,80.90
2019-05-26T11:25:40.799Z,81.80
2019-05-26T11:28:09.019Z,81.60
2019-05-26T11:30:37.244Z,80.30
2019-05-26T11:33:05.458Z,80.00
2019-05-26T11:35:33.691Z,80.60
2019-05-26T11:38:01.982Z,79.00
2019-05-26T11:40:30.238Z,79.80
2019-05-26T11:42:58.444Z,81.70
2019-05-26T11:45:26.675Z,80.20
2019-05-26T11:47:54.909Z,81.10
2019-05-26T11:50:23.142Z,80.30
2019-05-26T11:52:51.373Z,83.10
2019-05-26T11:55:19.593Z,80.90
2019-05-26T11:57:47.804Z,81.90
2019-05-26T12:00:16.883Z,83.90
2019-05-26T12:02:45.910Z,82.20
2019-05-26T12:05:17.448Z,81.70
2019-05-26T12:07:44.071Z,80.60
2019-05-26T12:10:14.358Z,82.20
2019-05-26T12:12:42.886Z,81.70
2019-05-26T12:15:11.298Z,82.50
2019-05-26T12:17:39.507Z,80.90
2019-05-26T12:20:07.736Z,83.20
2019-05-26T12:22:35.971Z,82.80
2019-05-26T12:25:06.038Z,83.60
2019-05-26T12:27:34.268Z,82.60
2019-05-26T12:30:02.770Z,85.70
2019-05-26T12:32:31.013Z,84.50
2019-05-26T12:34:59.232Z,84.00
2019-05-26T12:37:27.462Z,86.60
2019-05-26T12:39:55.672Z,86.80
2019-05-26T12:42:23.904Z,87.30
2019-05-26T12:44:52.133Z,85.80
2019-05-26T12:47:20.365Z,86.20
2019-05-26T12:49:48.571Z,84.40
2019-05-26T12:52:16.818Z,86.30
2019-05-26T12:54:45.043Z,86.60
2019-05-26T12:57:13.289Z,86.80
2019-05-26T12:59:41.501Z,87.60
2019-05-26T13:02:09.742Z,89.50
2019-05-26T13:04:37.982Z,88.70
2019-05-26T13:07:06.219Z,90.30
2019-05-26T13:09:34.426Z,90.00
2019-05-26T13:12:02.654Z,89.60
2019-05-26T13:14:30.880Z,89.50
2019-05-26T13:17:01.486Z,90.30
2019-05-26T13:19:29.074Z,90.40
2019-05-26T13:21:57.314Z,91.00
2019-05-26T13:24:25.527Z,90.70
2019-05-26T13:26:53.844Z,91.10
2019-05-26T13:29:25.463Z,91.70
2019-05-26T13:31:52.035Z,91.60
2019-05-26T13:34:20.267Z,92.10
2019-05-26T13:36:48.558Z,92.10
2019-05-26T13:39:16.823Z,92.50
2019-05-26T13:41:45.052Z,93.10
2019-05-26T13:44:13.288Z,93.10
2019-05-26T13:46:41.506Z,93.00
2019-05-26T13:49:09.738Z,93.30
2019-05-26T13:51:37.969Z,93.90
2019-05-26T13:54:06.282Z,93.30
2019-05-26T13:56:34.494Z,92.90
2019-05-26T13:59:02.726Z,92.30
2019-05-26T14:01:30.951Z,93.80
2019-05-26T14:03:59.248Z,92.40
2019-05-26T14:06:27.486Z,93.30
2019-05-26T14:08:55.736Z,93.20
2019-05-26T14:11:23.966Z,93.30
2019-05-26T14:13:52.209Z,93.70
2019-05-26T14:16:20.511Z,93.90
2019-05-26T14:18:48.747Z,94.20
2019-05-26T14:21:16.959Z,94.20
2019-05-26T14:23:45.189Z,93.70
2019-05-26T14:26:13.402Z,94.60
2019-05-26T14:28:41.646Z,94.70
2019-05-26T14:31:09.869Z,95.10
2019-05-26T14:33:38.127Z,95.00
2019-05-26T14:36:06.338Z,94.80
2019-05-26T14:38:43.243Z,94.90
2019-05-26T14:41:04.537Z,95.00
2019-05-26T14:43:52.182Z,95.20
2019-05-26T14:46:20.419Z,94.70
2019-05-26T14:48:48.670Z,95.40
2019-05-26T14:51:16.924Z,95.40
2019-05-26T14:53:45.187Z,95.40
2019-05-26T14:56:13.420Z,95.30
2019-05-26T14:58:41.655Z,95.10
2019-05-26T15:01:09.868Z,95.30
2019-05-26T15:03:38.095Z,95.00
2019-05-26T15:06:06.498Z,95.00
2019-05-26T15:08:34.831Z,94.60
2019-05-26T15:11:03.040Z,94.40
2019-05-26T15:13:31.281Z,93.80
2019-05-26T15:16:09.376Z,93.90
2019-05-26T15:18:29.494Z,93.60
2019-05-26T15:20:57.745Z,93.90
2019-05-26T15:23:26.038Z,93.30
2019-05-26T15:25:55.029Z,93.70
2019-05-26T15:28:23.290Z,93.10
2019-05-26T15:30:51.519Z,93.30
2019-05-26T15:33:19.749Z,93.80
2019-05-26T15:35:47.970Z,93.70
2019-05-26T15:38:16.179Z,93.50
2019-05-26T15:40:44.427Z,94.00
2019-05-26T15:43:12.639Z,93.80
2019-05-26T15:45:40.886Z,93.50
2019-05-26T15:48:09.113Z,93.90
2019-05-26T15:50:37.330Z,93.80
2019-05-26T15:53:05.566Z,93.80
2019-05-26T15:55:33.787Z,93.80
2019-05-26T15:58:02.026Z,93.90
2019-05-26T16:00:30.266Z,93.90
2019-05-26T16:02:58.504Z,94.00
2019-05-26T16:05:26.743Z,94.10
2019-05-26T16:07:57.047Z,94.10
2019-05-26T16:10:25.448Z,93.60
2019-05-26T16:12:53.726Z,94.00
2019-05-26T16:15:21.962Z,94.20
2019-05-26T16:17:50.191Z,94.20
2019-05-26T16:20:18.406Z,94.20
2019-05-26T16:22:46.643Z,94.50
2019-05-26T16:25:14.878Z,94.40
2019-05-26T16:27:43.106Z,94.00
2019-05-26T16:30:11.377Z,94.40
2019-05-26T16:32:39.590Z,94.30
2019-05-26T16:35:08.007Z,94.00
2019-05-26T16:37:36.230Z,93.90
2019-05-26T16:40:06.103Z,94.20
2019-05-26T16:42:34.332Z,93.00
2019-05-26T16:45:02.644Z,91.60
2019-05-26T16:47:30.870Z,80.00
2019-05-26T16:49:59.118Z,77.00
2019-05-26T16:52:27.346Z,76.30
2019-05-26T16:54:55.587Z,78.40
2019-05-26T16:57:23.858Z,79.30
2019-05-26T16:59:52.118Z,85.70
2019-05-26T17:02:20.357Z,87.50
2019-05-26T17:04:48.662Z,89.00
2019-05-26T17:07:16.897Z,89.00
2019-05-26T17:09:45.185Z,90.30
2019-05-26T17:12:13.485Z,90.80
2019-05-26T17:14:41.714Z,91.10
2019-05-26T17:17:14.859Z,91.60
2019-05-26T17:19:39.875Z,91.30
2019-05-26T17:22:08.100Z,91.80
2019-05-26T17:24:36.318Z,91.90
2019-05-26T17:27:04.566Z,91.90
2019-05-26T17:29:32.782Z,91.90
2019-05-26T17:32:01.028Z,91.80
2019-05-26T17:34:29.231Z,91.80
2019-05-26T17:36:57.454Z,91.60
2019-05-26T17:39:25.689Z,91.60
2019-05-26T17:41:53.926Z,91.80
2019-05-26T17:44:22.144Z,92.10
2019-05-26T17:46:50.386Z,92.00
2019-05-26T17:49:18.618Z,92.10
2019-05-26T17:51:46.853Z,92.80
2019-05-26T17:54:15.062Z,92.50
2019-05-26T17:56:43.321Z,93.10
2019-05-26T17:59:11.614Z,92.90
2019-05-26T18:01:39.836Z,93.50
2019-05-26T18:04:08.071Z,93.60
2019-05-26T18:06:36.295Z,93.50
2019-05-26T18:09:06.701Z,93.30
2019-05-26T18:11:35.236Z,93.70
2019-05-26T18:14:03.479Z,93.70
2019-05-26T18:16:31.691Z,93.80
2019-05-26T18:18:59.913Z,94.10
2019-05-26T18:21:28.156Z,94.30
2019-05-26T18:23:56.385Z,94.00
2019-05-26T18:26:24.614Z,94.20
2019-05-26T18:28:52.854Z,94.20
2019-05-26T18:31:21.067Z,94.30
2019-05-26T18:33:49.316Z,93.80
2019-05-26T18:36:17.542Z,94.40
2019-05-26T18:38:45.782Z,94.20
2019-05-26T18:41:13.991Z,94.20
2019-05-26T18:43:42.224Z,94.40
2019-05-26T18:46:10.456Z,94.50
2019-05-26T18:48:38.691Z,94.90
2019-05-26T18:51:06.931Z,95.00
2019-05-26T18:53:35.177Z,95.00
2019-05-26T18:56:03.412Z,95.10
2019-05-26T18:58:31.626Z,95.20
2019-05-26T19:00:59.842Z,95.30
2019-05-26T19:03:28.086Z,95.60
2019-05-26T19:05:57.183Z,95.80
2019-05-26T19:08:26.062Z,96.10
2019-05-26T19:10:54.367Z,95.90
2019-05-26T19:13:22.599Z,96.30
2019-05-26T19:15:50.802Z,96.20
2019-05-26T19:18:20.559Z,96.40
2019-05-26T19:20:49.043Z,96.30
2019-05-26T19:23:17.339Z,96.60
2019-05-26T19:25:45.569Z,96.40
2019-05-26T19:28:13.828Z,96.80
2019-05-26T19:30:45.479Z,97.10
2019-05-26T19:33:12.025Z,97.10
2019-05-26T19:35:43.885Z,97.20
2019-05-26T19:38:12.723Z,97.40
2019-05-26T19:40:40.949Z,97.70
2019-05-26T19:43:09.159Z,97.80
2019-05-26T19:45:37.410Z,97.70
2019-05-26T19:48:05.623Z,98.00
2019-05-26T19:50:33.848Z,97.90
2019-05-26T19:53:02.066Z,98.30
2019-05-26T19:55:30.282Z,98.10
2019-05-26T19:57:58.514Z,98.00
2019-05-26T20:00:26.830Z,98.90
2019-05-26T20:02:55.058Z,98.70
2019-05-26T20:05:23.289Z,99.10
2019-05-26T20:07:51.551Z,99.20
2019-05-26T20:10:19.794Z,98.10
2019-05-26T20:12:48.458Z,98.50
2019-05-26T20:15:16.757Z,97.30
2019-05-26T20:17:44.986Z,97.10
2019-05-26T20:20:13.943Z,97.10
2019-05-26T20:22:42.226Z,96.40
2019-05-26T20:25:10.482Z,96.60
2019-05-26T20:27:38.782Z,96.20
2019-05-26T20:30:07.130Z,96.80
2019-05-26T20:32:35.370Z,96.60
2019-05-26T20:35:05.634Z,97.20
2019-05-26T20:37:33.852Z,97.00
2019-05-26T20:40:02.115Z,96.30
2019-05-26T20:42:30.343Z,97.10
2019-05-26T20:44:58.942Z,97.20
2019-05-26T20:47:27.202Z,96.60
2019-05-26T20:49:55.527Z,97.30
2019-05-26T20:52:23.798Z,97.20
2019-05-26T20:54:52.016Z,98.10
2019-05-26T20:57:20.241Z,98.10
2019-05-26T20:59:48.472Z,98.50
2019-05-26T21:02:16.710Z,98.70
2019-05-26T21:04:44.942Z,98.90
2019-05-26T21:07:13.186Z,99.40
2019-05-26T21:09:41.417Z,99.10
2019-05-26T21:12:09.638Z,99.50
2019-05-26T21:14:37.851Z,99.90
2019-05-26T21:17:06.090Z,99.90
2019-05-26T21:19:50.627Z,99.90
2019-05-26T21:22:20.414Z,99.90
2019-05-26T21:24:48.985Z,99.90
2019-05-26T21:27:17.303Z,99.90
2019-05-26T21:29:47.750Z,99.90
2019-05-26T21:32:16.044Z,99.90
2019-05-26T21:34:44.256Z,99.90
2019-05-26T21:37:12.550Z,99.90
2019-05-26T21:39:40.781Z,99.90
2019-05-26T21:42:09.020Z,99.90
2019-05-26T21:44:37.227Z,99.90
2019-05-26T21:47:05.475Z,99.90
2019-05-26T21:49:33.699Z,99.90
2019-05-26T21:52:01.945Z,99.90
2019-05-26T21:54:30.170Z,99.90
2019-05-26T21:56:58.411Z,99.90
2019-05-26T21:59:26.646Z,99.90
2019-05-26T22:01:54.854Z,99.90
2019-05-26T22:04:23.079Z,99.90
2019-05-26T22:06:51.323Z,99.90
2019-05-26T22:09:19.622Z,99.90
2019-05-26T22:11:47.830Z,99.90
2019-05-26T22:14:16.073Z,99.90
2019-05-26T22:16:44.305Z,99.90
2019-05-26T22:19:12.543Z,99.90
2019-05-26T22:21:40.814Z,99.90
2019-05-26T22:24:09.097Z,99.90
2019-05-26T22:26:37.365Z,99.90
2019-05-26T22:29:05.597Z,99.90
2019-05-26T22:31:33.817Z,99.90
2019-05-26T22:34:02.059Z,99.90
2019-05-26T22:36:30.286Z,99.90
2019-05-26T22:38:58.517Z,99.90
2019-05-26T22:41:26.727Z,99.90
2019-05-26T22:43:54.966Z,99.90
2019-05-26T22:46:23.190Z,99.90
2019-05-26T22:48:51.438Z,99.90
2019-05-26T22:51:19.647Z,99.90
2019-05-26T22:53:47.875Z,99.90
2019-05-26T22:56:16.098Z,99.90
2019-05-26T22:58:44.323Z,99.90
2019-05-26T23:01:12.562Z,99.90
2019-05-26T23:03:40.783Z,99.90
2019-05-26T23:06:09.098Z,99.90
2019-05-26T23:08:37.366Z,99.90
2019-05-26T23:11:05.579Z,99.90
2019-05-26T23:13:33.814Z,99.90
2019-05-26T23:16:02.033Z,99.90
2019-05-26T23:18:30.244Z,99.90
2019-05-26T23:20:58.487Z,99.90
2019-05-26T23:23:26.727Z,99.90
2019-05-26T23:25:54.934Z,99.90
2019-05-26T23:28:23.166Z,99.90
2019-05-26T23:30:51.418Z,99.90
2019-05-26T23:33:19.634Z,99.90
2019-05-26T23:35:47.884Z,99.90
2019-05-26T23:38:16.087Z,99.90
2019-05-26T23:40:44.350Z,99.90
2019-05-26T23:43:12.562Z,99.90
2019-05-26T23:45:40.786Z,99.90
2019-05-26T23:48:09.018Z,99.90
2019-05-26T23:50:37.241Z,99.90
2019-05-26T23:53:05.454Z,99.90
2019-05-26T23:55:33.701Z,99.90
2019-05-26T23:58:01.913Z,99.90
